createdAt,value
2022-10-08T00:00:24.549Z,19.10
2022-10-08T00:10:29.599Z,18.90
2022-10-08T00:20:33.773Z,19.10
2022-10-08T00:30:40.069Z,18.90
2022-10-08T00:40:44.604Z,19.00
2022-10-08T00:50:49.786Z,19.20
2022-10-08T01:00:53.881Z,18.80
2022-10-08T01:11:09.333Z,18.80
2022-10-08T01:21:15.946Z,18.80
2022-10-08T01:31:25.923Z,19.10
2022-10-08T01:41:31.371Z,18.60
2022-10-08T01:51:41.148Z,18.60
2022-10-08T02:01:56.451Z,18.30
2022-10-08T02:12:01.580Z,18.30
2022-10-08T02:22:07.494Z,18.30
2022-10-08T02:32:20.290Z,18.70
2022-10-08T02:42:27.060Z,18.40
2022-10-08T02:52:37.066Z,18.50
2022-10-08T03:02:47.245Z,18.40
2022-10-08T03:12:52.581Z,18.20
2022-10-08T03:22:57.004Z,18.20
2022-10-08T03:33:02.339Z,18.20
2022-10-08T03:43:06.020Z,18.20
2022-10-08T03:53:10.949Z,18.30
2022-10-08T04:03:14.536Z,18.20
2022-10-08T04:13:20.548Z,18.30
2022-10-08T04:23:24.205Z,18.40
2022-10-08T04:33:30.067Z,18.60
2022-10-08T04:43:33.977Z,18.50
2022-10-08T04:53:39.720Z,18.40
2022-10-08T05:03:46.456Z,18.30
2022-10-08T05:13:52.975Z,18.20
2022-10-08T05:23:57.646Z,18.10
2022-10-08T05:34:02.747Z,18.10
2022-10-08T05:44:07.465Z,17.90
2022-10-08T05:54:12.552Z,18.00
2022-10-08T06:04:17.432Z,18.10
2022-10-08T06:14:24.547Z,18.10
2022-10-08T06:24:28.261Z,18.20
2022-10-08T06:34:33.454Z,18.10
2022-10-08T06:44:37.061Z,18.00
2022-10-08T06:54:42.191Z,18.20
2022-10-08T07:04:45.819Z,18.40
2022-10-08T07:14:50.860Z,18.50
2022-10-08T07:24:54.905Z,18.80
2022-10-08T07:35:00.239Z,19.10
2022-10-08T07:45:04.007Z,19.40
2022-10-08T07:55:09.653Z,19.70
2022-10-08T08:05:13.316Z,19.90
2022-10-08T08:15:18.446Z,20.50
2022-10-08T08:25:22.115Z,20.50
2022-10-08T08:35:27.215Z,21.10
2022-10-08T08:45:46.315Z,21.30
2022-10-08T08:55:55.369Z,21.50
2022-10-08T09:06:02.168Z,21.80
2022-10-08T09:16:07.683Z,22.20
2022-10-08T09:26:18.756Z,22.20
2022-10-08T09:36:33.821Z,22.30
2022-10-08T09:46:37.485Z,22.30
2022-10-08T09:56:42.688Z,22.00
2022-10-08T10:06:49.605Z,22.40
2022-10-08T10:17:02.393Z,22.40
2022-10-08T10:27:11.135Z,22.40
2022-10-08T10:37:20.963Z,22.40
2022-10-08T10:47:30.934Z,22.40
2022-10-08T10:57:51.554Z,23.10
2022-10-08T11:08:10.046Z,23.70
2022-10-08T11:18:26.268Z,23.20
2022-10-08T11:28:39.282Z,24.40
2022-10-08T11:38:49.200Z,26.00
2022-10-08T11:48:53.555Z,25.60
2022-10-08T11:59:08.482Z,24.70
2022-10-08T12:09:24.019Z,24.50
2022-10-08T12:20:02.463Z,24.10
2022-10-08T12:30:08.982Z,25.50
2022-10-08T12:40:27.010Z,24.30
2022-10-08T12:50:40.887Z,25.40
2022-10-08T13:00:51.233Z,24.60
2022-10-08T13:10:55.014Z,24.70
2022-10-08T13:21:01.907Z,25.40
2022-10-08T13:31:23.275Z,25.80
2022-10-08T13:41:28.512Z,25.80
2022-10-08T13:51:32.137Z,26.00
2022-10-08T14:01:37.392Z,25.30
2022-10-08T14:11:43.262Z,24.60
2022-10-08T14:21:49.460Z,24.50
2022-10-08T14:31:53.181Z,24.00
2022-10-08T14:41:58.858Z,27.60
2022-10-08T14:52:02.508Z,25.30
2022-10-08T15:02:08.110Z,25.20
2022-10-08T15:12:13.741Z,24.50
2022-10-08T15:22:18.867Z,27.60
2022-10-08T15:32:23.806Z,25.70
2022-10-08T15:42:30.264Z,23.50
2022-10-08T15:52:34.710Z,23.00
2022-10-08T16:02:39.694Z,22.50
2022-10-08T16:12:43.384Z,22.30
2022-10-08T16:22:48.691Z,22.10
2022-10-08T16:32:52.587Z,22.20
2022-10-08T16:42:57.570Z,22.20
2022-10-08T16:53:01.243Z,22.10
2022-10-08T17:03:06.421Z,22.00
2022-10-08T17:13:10.126Z,22.00
2022-10-08T17:23:15.193Z,21.90
2022-10-08T17:33:19.134Z,21.90
2022-10-08T17:43:24.961Z,22.00
2022-10-08T17:53:28.712Z,21.80
2022-10-08T18:03:34.027Z,21.90
2022-10-08T18:13:37.975Z,21.60
2022-10-08T18:23:43.982Z,21.90
2022-10-08T18:33:49.419Z,21.50
2022-10-08T18:43:54.761Z,21.50
2022-10-08T18:54:02.295Z,21.20
2022-10-08T19:04:10.560Z,21.00
2022-10-08T19:14:15.948Z,20.90
2022-10-08T19:24:22.857Z,21.10
2022-10-08T19:34:28.205Z,21.00
2022-10-08T19:44:33.287Z,20.00
2022-10-08T19:54:36.930Z,19.70
2022-10-08T20:04:42.571Z,19.60
2022-10-08T20:14:50.407Z,19.60
2022-10-08T20:24:55.771Z,19.50
2022-10-08T20:34:59.385Z,19.40
2022-10-08T20:45:04.705Z,19.30
2022-10-08T20:55:09.465Z,19.20
2022-10-08T21:05:14.645Z,19.00
2022-10-08T21:15:18.444Z,18.90
2022-10-08T21:25:23.670Z,18.90
2022-10-08T21:35:27.301Z,18.90
2022-10-08T21:45:32.570Z,19.00
2022-10-08T21:55:36.211Z,18.90
2022-10-08T22:05:41.777Z,18.90
2022-10-08T22:15:53.069Z,18.80
2022-10-08T22:26:00.050Z,18.80
2022-10-08T22:36:03.782Z,18.70
2022-10-08T22:46:11.165Z,18.60
2022-10-08T22:56:20.014Z,18.50
2022-10-08T23:06:26.420Z,18.40
2022-10-08T23:16:31.952Z,18.50
2022-10-08T23:26:37.737Z,18.30
2022-10-08T23:36:43.500Z,18.30
2022-10-08T23:46:48.504Z,18.20
2022-10-08T23:56:52.066Z,18.20
